sensor_id;sensor_type;location;lat;lon;timestamp;P1;durP1;ratioP1;P2;durP2;ratioP2
40827;SDS011;26549;50.918;5.338;2023-03-01T00:01:29;10.23;;;6.30;;
40827;SDS011;26549;50.918;5.338;2023-03-01T00:03:56;9.07;;;6.82;;
40827;SDS011;26549;50.918;5.338;2023-03-01T00:06:22;8.60;;;6.22;;
40827;SDS011;26549;50.918;5.338;2023-03-01T00:08:49;8.27;;;5.22;;
40827;SDS011;26549;50.918;5.338;2023-03-01T00:11:16;10.38;;;6.63;;
40827;SDS011;26549;50.918;5.338;2023-03-01T00:13:46;8.20;;;5.47;;
40827;SDS011;26549;50.918;5.338;2023-03-01T00:16:14;5.88;;;5.28;;
40827;SDS011;26549;50.918;5.338;2023-03-01T00:18:43;7.38;;;5.50;;
40827;SDS011;26549;50.918;5.338;2023-03-01T00:21:09;6.55;;;5.82;;
40827;SDS011;26549;50.918;5.338;2023-03-01T00:23:36;7.80;;;5.78;;
40827;SDS011;26549;50.918;5.338;2023-03-01T00:26:02;9.35;;;5.60;;
40827;SDS011;26549;50.918;5.338;2023-03-01T00:28:31;9.95;;;5.30;;
40827;SDS011;26549;50.918;5.338;2023-03-01T00:31:02;8.50;;;5.43;;
40827;SDS011;26549;50.918;5.338;2023-03-01T00:33:33;8.70;;;5.38;;
40827;SDS011;26549;50.918;5.338;2023-03-01T00:35:59;8.02;;;5.40;;
40827;SDS011;26549;50.918;5.338;2023-03-01T00:38:25;7.82;;;5.57;;
40827;SDS011;26549;50.918;5.338;2023-03-01T00:40:52;5.82;;;5.25;;
40827;SDS011;26549;50.918;5.338;2023-03-01T00:43:18;7.43;;;5.82;;
40827;SDS011;26549;50.918;5.338;2023-03-01T00:45:43;10.23;;;5.60;;
40827;SDS011;26549;50.918;5.338;2023-03-01T00:48:09;8.23;;;5.55;;
40827;SDS011;26549;50.918;5.338;2023-03-01T00:50:35;7.38;;;5.30;;
40827;SDS011;26549;50.918;5.338;2023-03-01T00:53:01;7.35;;;5.93;;
40827;SDS011;26549;50.918;5.338;2023-03-01T00:55:27;9.60;;;6.43;;
40827;SDS011;26549;50.918;5.338;2023-03-01T00:57:53;10.45;;;6.43;;
40827;SDS011;26549;50.918;5.338;2023-03-01T01:00:19;6.40;;;5.40;;
40827;SDS011;26549;50.918;5.338;2023-03-01T01:02:46;7.47;;;5.80;;
40827;SDS011;26549;50.918;5.338;2023-03-01T01:05:12;7.50;;;6.03;;
40827;SDS011;26549;50.918;5.338;2023-03-01T01:07:38;8.70;;;6.13;;
40827;SDS011;26549;50.918;5.338;2023-03-01T01:10:04;8.18;;;6.15;;
40827;SDS011;26549;50.918;5.338;2023-03-01T01:12:31;9.52;;;6.40;;
40827;SDS011;26549;50.918;5.338;2023-03-01T01:14:57;9.10;;;6.40;;
40827;SDS011;26549;50.918;5.338;2023-03-01T01:17:23;7.55;;;5.63;;
40827;SDS011;26549;50.918;5.338;2023-03-01T01:19:48;8.02;;;5.88;;
40827;SDS011;26549;50.918;5.338;2023-03-01T01:22:14;6.82;;;5.50;;
40827;SDS011;26549;50.918;5.338;2023-03-01T01:24:40;7.15;;;5.57;;
40827;SDS011;26549;50.918;5.338;2023-03-01T01:27:06;8.30;;;5.35;;
40827;SDS011;26549;50.918;5.338;2023-03-01T01:29:32;8.55;;;6.07;;
40827;SDS011;26549;50.918;5.338;2023-03-01T01:31:59;8.15;;;5.97;;
40827;SDS011;26549;50.918;5.338;2023-03-01T01:34:24;9.13;;;5.68;;
40827;SDS011;26549;50.918;5.338;2023-03-01T01:36:51;8.05;;;6.85;;
40827;SDS011;26549;50.918;5.338;2023-03-01T01:39:21;9.40;;;6.20;;
40827;SDS011;26549;50.918;5.338;2023-03-01T01:41:47;8.15;;;5.95;;
40827;SDS011;26549;50.918;5.338;2023-03-01T01:49:42;8.18;;;5.75;;
40827;SDS011;26549;50.918;5.338;2023-03-01T01:52:25;8.60;;;6.32;;
40827;SDS011;26549;50.918;5.338;2023-03-01T01:54:57;9.05;;;6.20;;
40827;SDS011;26549;50.918;5.338;2023-03-01T01:57:37;7.80;;;5.38;;
40827;SDS011;26549;50.918;5.338;2023-03-01T02:00:11;7.25;;;5.25;;
40827;SDS011;26549;50.918;5.338;2023-03-01T02:02:39;8.32;;;5.97;;
40827;SDS011;26549;50.918;5.338;2023-03-01T02:07:53;8.40;;;6.32;;
40827;SDS011;26549;50.918;5.338;2023-03-01T02:10:21;7.63;;;6.05;;
40827;SDS011;26549;50.918;5.338;2023-03-01T02:12:49;8.48;;;5.38;;
40827;SDS011;26549;50.918;5.338;2023-03-01T02:15:16;10.07;;;6.18;;
40827;SDS011;26549;50.918;5.338;2023-03-01T02:17:41;8.57;;;6.10;;
40827;SDS011;26549;50.918;5.338;2023-03-01T02:22:55;7.93;;;6.15;;
40827;SDS011;26549;50.918;5.338;2023-03-01T02:25:36;6.32;;;5.35;;
40827;SDS011;26549;50.918;5.338;2023-03-01T02:30:40;6.22;;;5.60;;
40827;SDS011;26549;50.918;5.338;2023-03-01T02:33:27;8.90;;;5.65;;
40827;SDS011;26549;50.918;5.338;2023-03-01T02:35:54;9.45;;;6.78;;
40827;SDS011;26549;50.918;5.338;2023-03-01T02:38:21;7.50;;;6.38;;
40827;SDS011;26549;50.918;5.338;2023-03-01T02:40:48;7.60;;;6.70;;
40827;SDS011;26549;50.918;5.338;2023-03-01T02:43:19;7.38;;;6.25;;
40827;SDS011;26549;50.918;5.338;2023-03-01T02:45:51;9.32;;;6.70;;
40827;SDS011;26549;50.918;5.338;2023-03-01T02:48:18;7.35;;;6.53;;
40827;SDS011;26549;50.918;5.338;2023-03-01T02:51:02;8.73;;;6.47;;
40827;SDS011;26549;50.918;5.338;2023-03-01T02:53:37;11.57;;;6.32;;
40827;SDS011;26549;50.918;5.338;2023-03-01T02:56:04;9.95;;;7.10;;
40827;SDS011;26549;50.918;5.338;2023-03-01T02:58:30;10.23;;;6.63;;
40827;SDS011;26549;50.918;5.338;2023-03-01T03:00:56;7.40;;;6.60;;
40827;SDS011;26549;50.918;5.338;2023-03-01T03:03:22;9.95;;;6.18;;
40827;SDS011;26549;50.918;5.338;2023-03-01T03:05:48;8.90;;;6.82;;
40827;SDS011;26549;50.918;5.338;2023-03-01T03:08:14;7.50;;;5.97;;
40827;SDS011;26549;50.918;5.338;2023-03-01T03:10:48;7.55;;;6.00;;
40827;SDS011;26549;50.918;5.338;2023-03-01T03:13:14;12.23;;;7.22;;
40827;SDS011;26549;50.918;5.338;2023-03-01T03:15:41;12.63;;;8.25;;
40827;SDS011;26549;50.918;5.338;2023-03-01T03:18:14;10.40;;;6.88;;
40827;SDS011;26549;50.918;5.338;2023-03-01T03:20:41;12.05;;;6.35;;
40827;SDS011;26549;50.918;5.338;2023-03-01T03:23:07;8.65;;;6.97;;
40827;SDS011;26549;50.918;5.338;2023-03-01T03:25:33;10.10;;;7.13;;
40827;SDS011;26549;50.918;5.338;2023-03-01T03:28:02;8.93;;;6.78;;
40827;SDS011;26549;50.918;5.338;2023-03-01T03:30:34;10.88;;;7.65;;
40827;SDS011;26549;50.918;5.338;2023-03-01T03:33:04;10.32;;;6.88;;
40827;SDS011;26549;50.918;5.338;2023-03-01T03:35:31;9.88;;;6.95;;
40827;SDS011;26549;50.918;5.338;2023-03-01T03:38:00;10.13;;;6.88;;
40827;SDS011;26549;50.918;5.338;2023-03-01T03:40:34;10.45;;;6.45;;
40827;SDS011;26549;50.918;5.338;2023-03-01T03:43:03;9.15;;;6.53;;
40827;SDS011;26549;50.918;5.338;2023-03-01T03:45:31;10.48;;;7.45;;
40827;SDS011;26549;50.918;5.338;2023-03-01T03:47:58;11.25;;;7.85;;
40827;SDS011;26549;50.918;5.338;2023-03-01T03:50:25;12.80;;;6.95;;
40827;SDS011;26549;50.918;5.338;2023-03-01T03:52:51;9.52;;;7.95;;
40827;SDS011;26549;50.918;5.338;2023-03-01T03:55:17;9.13;;;6.82;;
40827;SDS011;26549;50.918;5.338;2023-03-01T03:57:45;8.77;;;6.88;;
40827;SDS011;26549;50.918;5.338;2023-03-01T04:00:19;9.75;;;7.22;;
40827;SDS011;26549;50.918;5.338;2023-03-01T04:02:48;7.43;;;6.45;;
40827;SDS011;26549;50.918;5.338;2023-03-01T04:05:15;9.25;;;7.50;;
40827;SDS011;26549;50.918;5.338;2023-03-01T04:07:42;8.52;;;7.60;;
40827;SDS011;26549;50.918;5.338;2023-03-01T04:10:09;8.68;;;7.18;;
40827;SDS011;26549;50.918;5.338;2023-03-01T04:12:38;8.82;;;6.65;;
40827;SDS011;26549;50.918;5.338;2023-03-01T04:15:04;12.18;;;7.57;;
40827;SDS011;26549;50.918;5.338;2023-03-01T04:17:45;10.63;;;7.40;;
40827;SDS011;26549;50.918;5.338;2023-03-01T04:20:16;10.63;;;7.28;;
40827;SDS011;26549;50.918;5.338;2023-03-01T04:22:50;15.27;;;6.88;;
40827;SDS011;26549;50.918;5.338;2023-03-01T04:25:23;10.05;;;7.15;;
40827;SDS011;26549;50.918;5.338;2023-03-01T04:27:49;10.40;;;7.00;;
40827;SDS011;26549;50.918;5.338;2023-03-01T04:30:15;9.48;;;7.45;;
40827;SDS011;26549;50.918;5.338;2023-03-01T04:32:41;11.15;;;7.95;;
40827;SDS011;26549;50.918;5.338;2023-03-01T04:35:07;10.05;;;7.40;;
40827;SDS011;26549;50.918;5.338;2023-03-01T04:37:34;8.20;;;7.30;;
40827;SDS011;26549;50.918;5.338;2023-03-01T04:40:01;10.35;;;6.82;;
40827;SDS011;26549;50.918;5.338;2023-03-01T04:42:38;8.38;;;7.47;;
40827;SDS011;26549;50.918;5.338;2023-03-01T04:45:04;9.23;;;7.47;;
40827;SDS011;26549;50.918;5.338;2023-03-01T04:47:38;11.73;;;7.20;;
40827;SDS011;26549;50.918;5.338;2023-03-01T04:50:09;9.75;;;7.72;;
40827;SDS011;26549;50.918;5.338;2023-03-01T04:52:37;12.02;;;7.63;;
40827;SDS011;26549;50.918;5.338;2023-03-01T04:55:03;10.27;;;7.65;;
40827;SDS011;26549;50.918;5.338;2023-03-01T04:57:30;12.13;;;8.55;;
40827;SDS011;26549;50.918;5.338;2023-03-01T04:59:55;9.50;;;8.02;;
40827;SDS011;26549;50.918;5.338;2023-03-01T05:02:21;10.18;;;7.63;;
40827;SDS011;26549;50.918;5.338;2023-03-01T05:04:47;11.70;;;7.93;;
40827;SDS011;26549;50.918;5.338;2023-03-01T05:07:13;14.07;;;7.75;;
40827;SDS011;26549;50.918;5.338;2023-03-01T05:09:45;11.82;;;8.65;;
40827;SDS011;26549;50.918;5.338;2023-03-01T05:12:12;10.32;;;8.13;;
40827;SDS011;26549;50.918;5.338;2023-03-01T05:14:38;11.40;;;8.23;;
40827;SDS011;26549;50.918;5.338;2023-03-01T05:17:04;10.77;;;7.18;;
40827;SDS011;26549;50.918;5.338;2023-03-01T05:19:30;12.20;;;8.00;;
40827;SDS011;26549;50.918;5.338;2023-03-01T05:21:57;10.10;;;8.35;;
40827;SDS011;26549;50.918;5.338;2023-03-01T05:24:26;10.35;;;9.13;;
40827;SDS011;26549;50.918;5.338;2023-03-01T05:26:53;9.38;;;7.70;;
40827;SDS011;26549;50.918;5.338;2023-03-01T05:29:20;10.82;;;8.10;;
40827;SDS011;26549;50.918;5.338;2023-03-01T05:31:53;12.32;;;8.88;;
40827;SDS011;26549;50.918;5.338;2023-03-01T05:34:25;11.85;;;8.60;;
40827;SDS011;26549;50.918;5.338;2023-03-01T05:36:53;10.50;;;7.65;;
40827;SDS011;26549;50.918;5.338;2023-03-01T05:39:20;11.75;;;7.53;;
40827;SDS011;26549;50.918;5.338;2023-03-01T05:41:47;11.25;;;8.60;;
40827;SDS011;26549;50.918;5.338;2023-03-01T05:44:16;9.85;;;8.02;;
40827;SDS011;26549;50.918;5.338;2023-03-01T05:46:42;13.23;;;8.70;;
40827;SDS011;26549;50.918;5.338;2023-03-01T05:49:08;11.43;;;7.93;;
40827;SDS011;26549;50.918;5.338;2023-03-01T05:51:33;10.32;;;7.68;;
40827;SDS011;26549;50.918;5.338;2023-03-01T05:53:59;13.13;;;8.90;;
40827;SDS011;26549;50.918;5.338;2023-03-01T05:56:25;13.52;;;8.07;;
40827;SDS011;26549;50.918;5.338;2023-03-01T05:58:51;26.73;;;10.07;;
40827;SDS011;26549;50.918;5.338;2023-03-01T06:01:17;14.50;;;9.15;;
40827;SDS011;26549;50.918;5.338;2023-03-01T06:03:42;12.82;;;7.43;;
40827;SDS011;26549;50.918;5.338;2023-03-01T06:06:08;14.55;;;8.95;;
40827;SDS011;26549;50.918;5.338;2023-03-01T06:08:34;13.82;;;8.13;;
40827;SDS011;26549;50.918;5.338;2023-03-01T06:11:00;12.23;;;8.20;;
40827;SDS011;26549;50.918;5.338;2023-03-01T06:13:26;11.98;;;8.55;;
40827;SDS011;26549;50.918;5.338;2023-03-01T06:15:51;11.63;;;8.48;;
40827;SDS011;26549;50.918;5.338;2023-03-01T06:18:17;12.65;;;8.05;;
40827;SDS011;26549;50.918;5.338;2023-03-01T06:20:43;11.98;;;8.02;;
40827;SDS011;26549;50.918;5.338;2023-03-01T06:23:09;16.77;;;8.38;;
40827;SDS011;26549;50.918;5.338;2023-03-01T06:25:35;12.60;;;8.13;;
40827;SDS011;26549;50.918;5.338;2023-03-01T06:28:01;11.70;;;7.47;;
40827;SDS011;26549;50.918;5.338;2023-03-01T06:30:26;16.58;;;9.02;;
40827;SDS011;26549;50.918;5.338;2023-03-01T06:32:52;11.63;;;7.88;;
40827;SDS011;26549;50.918;5.338;2023-03-01T06:35:26;17.67;;;8.45;;
40827;SDS011;26549;50.918;5.338;2023-03-01T06:37:54;10.02;;;7.60;;
40827;SDS011;26549;50.918;5.338;2023-03-01T06:40:21;12.43;;;8.02;;
40827;SDS011;26549;50.918;5.338;2023-03-01T06:42:47;14.30;;;8.45;;
40827;SDS011;26549;50.918;5.338;2023-03-01T06:45:14;18.33;;;7.80;;
40827;SDS011;26549;50.918;5.338;2023-03-01T06:47:40;11.93;;;8.65;;
40827;SDS011;26549;50.918;5.338;2023-03-01T06:50:07;13.35;;;10.18;;
40827;SDS011;26549;50.918;5.338;2023-03-01T06:52:33;17.73;;;9.65;;
40827;SDS011;26549;50.918;5.338;2023-03-01T06:55:00;13.60;;;8.93;;
40827;SDS011;26549;50.918;5.338;2023-03-01T06:57:26;10.88;;;7.35;;
40827;SDS011;26549;50.918;5.338;2023-03-01T06:59:52;11.85;;;8.23;;
40827;SDS011;26549;50.918;5.338;2023-03-01T07:02:18;11.32;;;8.50;;
40827;SDS011;26549;50.918;5.338;2023-03-01T07:04:44;14.13;;;9.57;;
40827;SDS011;26549;50.918;5.338;2023-03-01T07:07:11;11.07;;;7.93;;
40827;SDS011;26549;50.918;5.338;2023-03-01T07:09:37;12.52;;;8.38;;
40827;SDS011;26549;50.918;5.338;2023-03-01T07:12:03;12.57;;;8.55;;
40827;SDS011;26549;50.918;5.338;2023-03-01T07:14:29;15.25;;;8.45;;
40827;SDS011;26549;50.918;5.338;2023-03-01T07:16:55;15.52;;;9.48;;
40827;SDS011;26549;50.918;5.338;2023-03-01T07:19:21;11.38;;;8.93;;
40827;SDS011;26549;50.918;5.338;2023-03-01T07:21:48;14.15;;;8.98;;
40827;SDS011;26549;50.918;5.338;2023-03-01T07:24:14;13.13;;;8.93;;
40827;SDS011;26549;50.918;5.338;2023-03-01T07:26:40;12.75;;;7.82;;
40827;SDS011;26549;50.918;5.338;2023-03-01T07:29:06;9.82;;;8.18;;
40827;SDS011;26549;50.918;5.338;2023-03-01T07:31:35;12.02;;;8.93;;
40827;SDS011;26549;50.918;5.338;2023-03-01T07:34:02;13.05;;;8.02;;
40827;SDS011;26549;50.918;5.338;2023-03-01T07:36:28;12.82;;;8.43;;
40827;SDS011;26549;50.918;5.338;2023-03-01T07:38:54;11.70;;;8.77;;
40827;SDS011;26549;50.918;5.338;2023-03-01T07:41:20;16.63;;;8.85;;
40827;SDS011;26549;50.918;5.338;2023-03-01T07:43:47;14.43;;;8.73;;
40827;SDS011;26549;50.918;5.338;2023-03-01T07:46:13;13.57;;;9.18;;
40827;SDS011;26549;50.918;5.338;2023-03-01T07:48:39;11.15;;;9.40;;
40827;SDS011;26549;50.918;5.338;2023-03-01T07:51:06;14.18;;;8.85;;
40827;SDS011;26549;50.918;5.338;2023-03-01T07:53:33;14.48;;;9.02;;
40827;SDS011;26549;50.918;5.338;2023-03-01T07:56:00;10.38;;;8.45;;
40827;SDS011;26549;50.918;5.338;2023-03-01T07:58:30;14.10;;;8.55;;
40827;SDS011;26549;50.918;5.338;2023-03-01T08:01:00;12.07;;;9.07;;
40827;SDS011;26549;50.918;5.338;2023-03-01T08:03:29;12.55;;;8.18;;
40827;SDS011;26549;50.918;5.338;2023-03-01T08:06:00;14.48;;;8.90;;
40827;SDS011;26549;50.918;5.338;2023-03-01T08:08:27;17.25;;;9.90;;
40827;SDS011;26549;50.918;5.338;2023-03-01T08:10:57;12.13;;;9.05;;
40827;SDS011;26549;50.918;5.338;2023-03-01T08:13:24;12.60;;;8.70;;
40827;SDS011;26549;50.918;5.338;2023-03-01T08:15:51;12.27;;;9.35;;
40827;SDS011;26549;50.918;5.338;2023-03-01T08:18:17;17.83;;;9.77;;
40827;SDS011;26549;50.918;5.338;2023-03-01T08:20:44;16.05;;;10.05;;
40827;SDS011;26549;50.918;5.338;2023-03-01T08:23:10;14.38;;;10.43;;
40827;SDS011;26549;50.918;5.338;2023-03-01T08:25:36;11.85;;;8.88;;
40827;SDS011;26549;50.918;5.338;2023-03-01T08:28:03;15.88;;;10.50;;
40827;SDS011;26549;50.918;5.338;2023-03-01T08:30:29;12.80;;;9.45;;
40827;SDS011;26549;50.918;5.338;2023-03-01T08:32:55;14.63;;;9.50;;
40827;SDS011;26549;50.918;5.338;2023-03-01T08:35:21;14.02;;;8.68;;
40827;SDS011;26549;50.918;5.338;2023-03-01T08:37:48;13.68;;;9.55;;
40827;SDS011;26549;50.918;5.338;2023-03-01T08:40:14;11.30;;;8.30;;
40827;SDS011;26549;50.918;5.338;2023-03-01T08:42:41;13.57;;;8.88;;
40827;SDS011;26549;50.918;5.338;2023-03-01T08:45:11;12.10;;;8.77;;
40827;SDS011;26549;50.918;5.338;2023-03-01T08:47:39;13.35;;;9.00;;
40827;SDS011;26549;50.918;5.338;2023-03-01T08:50:05;10.70;;;7.97;;
40827;SDS011;26549;50.918;5.338;2023-03-01T08:52:32;10.77;;;8.43;;
40827;SDS011;26549;50.918;5.338;2023-03-01T08:54:58;13.20;;;8.95;;
40827;SDS011;26549;50.918;5.338;2023-03-01T08:57:26;14.15;;;9.88;;
40827;SDS011;26549;50.918;5.338;2023-03-01T08:59:52;12.45;;;8.10;;
40827;SDS011;26549;50.918;5.338;2023-03-01T09:02:21;11.18;;;8.20;;
40827;SDS011;26549;50.918;5.338;2023-03-01T09:04:47;13.93;;;8.93;;
40827;SDS011;26549;50.918;5.338;2023-03-01T09:07:13;14.27;;;9.13;;
40827;SDS011;26549;50.918;5.338;2023-03-01T09:09:39;13.35;;;9.90;;
40827;SDS011;26549;50.918;5.338;2023-03-01T09:12:05;13.50;;;8.43;;
40827;SDS011;26549;50.918;5.338;2023-03-01T09:14:31;11.40;;;8.05;;
40827;SDS011;26549;50.918;5.338;2023-03-01T09:16:57;12.52;;;8.65;;
40827;SDS011;26549;50.918;5.338;2023-03-01T09:19:23;12.15;;;8.68;;
40827;SDS011;26549;50.918;5.338;2023-03-01T09:21:49;11.93;;;8.68;;
40827;SDS011;26549;50.918;5.338;2023-03-01T09:24:21;9.82;;;8.57;;
40827;SDS011;26549;50.918;5.338;2023-03-01T09:26:48;15.25;;;8.73;;
40827;SDS011;26549;50.918;5.338;2023-03-01T09:29:15;12.00;;;9.43;;
40827;SDS011;26549;50.918;5.338;2023-03-01T09:31:42;13.65;;;8.85;;
40827;SDS011;26549;50.918;5.338;2023-03-01T09:34:08;11.70;;;8.63;;
40827;SDS011;26549;50.918;5.338;2023-03-01T09:36:35;12.50;;;9.40;;
40827;SDS011;26549;50.918;5.338;2023-03-01T09:39:01;16.35;;;8.73;;
40827;SDS011;26549;50.918;5.338;2023-03-01T09:41:43;15.35;;;8.50;;
40827;SDS011;26549;50.918;5.338;2023-03-01T09:44:26;12.68;;;8.88;;
40827;SDS011;26549;50.918;5.338;2023-03-01T09:46:53;14.38;;;9.15;;
40827;SDS011;26549;50.918;5.338;2023-03-01T09:49:21;14.07;;;8.13;;
40827;SDS011;26549;50.918;5.338;2023-03-01T09:54:48;14.93;;;9.48;;
40827;SDS011;26549;50.918;5.338;2023-03-01T10:00:01;14.48;;;9.48;;
40827;SDS011;26549;50.918;5.338;2023-03-01T10:02:45;13.27;;;8.95;;
40827;SDS011;26549;50.918;5.338;2023-03-01T10:05:43;15.00;;;9.13;;
40827;SDS011;26549;50.918;5.338;2023-03-01T10:11:01;13.02;;;7.60;;
40827;SDS011;26549;50.918;5.338;2023-03-01T10:14:03;11.65;;;8.45;;
40827;SDS011;26549;50.918;5.338;2023-03-01T10:16:51;16.83;;;9.18;;
40827;SDS011;26549;50.918;5.338;2023-03-01T10:21:53;13.55;;;9.05;;
40827;SDS011;26549;50.918;5.338;2023-03-01T10:24:23;13.90;;;9.13;;
40827;SDS011;26549;50.918;5.338;2023-03-01T10:26:58;17.92;;;9.88;;
40827;SDS011;26549;50.918;5.338;2023-03-01T10:29:41;14.95;;;10.23;;
40827;SDS011;26549;50.918;5.338;2023-03-01T10:32:28;15.23;;;9.73;;
40827;SDS011;26549;50.918;5.338;2023-03-01T10:34:55;12.18;;;8.30;;
40827;SDS011;26549;50.918;5.338;2023-03-01T10:37:22;16.67;;;10.40;;
40827;SDS011;26549;50.918;5.338;2023-03-01T10:40:08;15.55;;;8.18;;
40827;SDS011;26549;50.918;5.338;2023-03-01T10:42:39;11.87;;;8.23;;
40827;SDS011;26549;50.918;5.338;2023-03-01T10:50:50;13.35;;;8.60;;
40827;SDS011;26549;50.918;5.338;2023-03-01T10:53:37;10.75;;;8.25;;
40827;SDS011;26549;50.918;5.338;2023-03-01T10:56:08;13.52;;;8.95;;
40827;SDS011;26549;50.918;5.338;2023-03-01T10:58:37;13.90;;;9.48;;
40827;SDS011;26549;50.918;5.338;2023-03-01T11:01:08;13.27;;;9.45;;
40827;SDS011;26549;50.918;5.338;2023-03-01T11:04:09;14.55;;;8.43;;
40827;SDS011;26549;50.918;5.338;2023-03-01T11:06:38;14.80;;;8.65;;
40827;SDS011;26549;50.918;5.338;2023-03-01T11:09:20;17.17;;;9.35;;
40827;SDS011;26549;50.918;5.338;2023-03-01T11:11:51;14.45;;;9.27;;
40827;SDS011;26549;50.918;5.338;2023-03-01T11:14:24;13.82;;;8.73;;
40827;SDS011;26549;50.918;5.338;2023-03-01T11:17:01;14.15;;;8.70;;
40827;SDS011;26549;50.918;5.338;2023-03-01T11:19:30;13.73;;;8.48;;
40827;SDS011;26549;50.918;5.338;2023-03-01T11:22:27;12.30;;;8.48;;
40827;SDS011;26549;50.918;5.338;2023-03-01T11:24:54;11.80;;;8.35;;
40827;SDS011;26549;50.918;5.338;2023-03-01T11:27:33;13.82;;;8.80;;
40827;SDS011;26549;50.918;5.338;2023-03-01T11:32:43;14.20;;;9.10;;
40827;SDS011;26549;50.918;5.338;2023-03-01T11:35:20;11.55;;;8.38;;
40827;SDS011;26549;50.918;5.338;2023-03-01T11:40:33;13.23;;;8.45;;
40827;SDS011;26549;50.918;5.338;2023-03-01T11:43:06;13.30;;;7.38;;
40827;SDS011;26549;50.918;5.338;2023-03-01T11:45:42;13.77;;;9.05;;
40827;SDS011;26549;50.918;5.338;2023-03-01T11:48:27;12.05;;;8.25;;
40827;SDS011;26549;50.918;5.338;2023-03-01T12:02:22;11.85;;;8.95;;
40827;SDS011;26549;50.918;5.338;2023-03-01T12:05:20;11.20;;;7.50;;
40827;SDS011;26549;50.918;5.338;2023-03-01T12:10:28;16.38;;;9.13;;
40827;SDS011;26549;50.918;5.338;2023-03-01T12:16:27;11.73;;;8.07;;
40827;SDS011;26549;50.918;5.338;2023-03-01T12:24:43;15.93;;;7.60;;
40827;SDS011;26549;50.918;5.338;2023-03-01T12:27:36;13.52;;;8.30;;
40827;SDS011;26549;50.918;5.338;2023-03-01T12:30:42;13.48;;;8.90;;
40827;SDS011;26549;50.918;5.338;2023-03-01T12:42:41;9.88;;;7.45;;
40827;SDS011;26549;50.918;5.338;2023-03-01T12:45:28;12.40;;;9.48;;
40827;SDS011;26549;50.918;5.338;2023-03-01T12:48:11;13.55;;;8.82;;
40827;SDS011;26549;50.918;5.338;2023-03-01T12:50:57;12.20;;;8.45;;
40827;SDS011;26549;50.918;5.338;2023-03-01T12:53:47;19.52;;;8.75;;
40827;SDS011;26549;50.918;5.338;2023-03-01T12:56:19;8.82;;;7.00;;
40827;SDS011;26549;50.918;5.338;2023-03-01T12:58:57;12.85;;;7.60;;
40827;SDS011;26549;50.918;5.338;2023-03-01T13:01:42;10.77;;;7.95;;
40827;SDS011;26549;50.918;5.338;2023-03-01T13:04:46;13.27;;;7.95;;
40827;SDS011;26549;50.918;5.338;2023-03-01T13:07:50;18.23;;;8.38;;
40827;SDS011;26549;50.918;5.338;2023-03-01T13:15:34;11.10;;;7.70;;
40827;SDS011;26549;50.918;5.338;2023-03-01T13:18:28;10.15;;;7.03;;
40827;SDS011;26549;50.918;5.338;2023-03-01T13:20:56;11.60;;;7.70;;
40827;SDS011;26549;50.918;5.338;2023-03-01T13:23:26;13.20;;;7.63;;
40827;SDS011;26549;50.918;5.338;2023-03-01T13:33:58;9.80;;;7.40;;
40827;SDS011;26549;50.918;5.338;2023-03-01T13:39:04;12.07;;;6.93;;
40827;SDS011;26549;50.918;5.338;2023-03-01T13:41:53;10.67;;;7.90;;
40827;SDS011;26549;50.918;5.338;2023-03-01T13:46:56;12.07;;;8.15;;
40827;SDS011;26549;50.918;5.338;2023-03-01T13:49:28;11.30;;;7.78;;
40827;SDS011;26549;50.918;5.338;2023-03-01T13:51:58;11.20;;;8.02;;
40827;SDS011;26549;50.918;5.338;2023-03-01T13:54:31;10.43;;;7.78;;
40827;SDS011;26549;50.918;5.338;2023-03-01T13:56:59;11.13;;;6.47;;
40827;SDS011;26549;50.918;5.338;2023-03-01T13:59:26;9.85;;;8.02;;
40827;SDS011;26549;50.918;5.338;2023-03-01T14:01:55;12.38;;;7.72;;
40827;SDS011;26549;50.918;5.338;2023-03-01T14:04:27;12.45;;;7.78;;
40827;SDS011;26549;50.918;5.338;2023-03-01T14:09:58;17.80;;;7.63;;
40827;SDS011;26549;50.918;5.338;2023-03-01T14:12:47;13.55;;;7.13;;
40827;SDS011;26549;50.918;5.338;2023-03-01T14:15:20;12.23;;;7.80;;
40827;SDS011;26549;50.918;5.338;2023-03-01T14:17:54;11.50;;;6.80;;
40827;SDS011;26549;50.918;5.338;2023-03-01T14:20:27;10.93;;;7.57;;
40827;SDS011;26549;50.918;5.338;2023-03-01T14:22:57;11.43;;;7.75;;
40827;SDS011;26549;50.918;5.338;2023-03-01T14:25:33;11.05;;;7.03;;
40827;SDS011;26549;50.918;5.338;2023-03-01T15:41:32;8.45;;;6.07;;
40827;SDS011;26549;50.918;5.338;2023-03-01T15:44:15;14.05;;;9.32;;
40827;SDS011;26549;50.918;5.338;2023-03-01T15:46:45;13.93;;;6.85;;
40827;SDS011;26549;50.918;5.338;2023-03-01T15:49:25;13.77;;;5.18;;
40827;SDS011;26549;50.918;5.338;2023-03-01T15:52:10;8.52;;;5.63;;
40827;SDS011;26549;50.918;5.338;2023-03-01T15:54:44;8.82;;;5.82;;
40827;SDS011;26549;50.918;5.338;2023-03-01T15:57:14;14.38;;;5.90;;
40827;SDS011;26549;50.918;5.338;2023-03-01T15:59:40;8.48;;;5.40;;
40827;SDS011;26549;50.918;5.338;2023-03-01T16:02:10;8.35;;;5.07;;
40827;SDS011;26549;50.918;5.338;2023-03-01T16:04:38;8.30;;;4.82;;
40827;SDS011;26549;50.918;5.338;2023-03-01T16:07:04;10.05;;;5.30;;
40827;SDS011;26549;50.918;5.338;2023-03-01T16:09:30;7.45;;;5.38;;
40827;SDS011;26549;50.918;5.338;2023-03-01T16:11:57;8.57;;;5.10;;
40827;SDS011;26549;50.918;5.338;2023-03-01T16:14:24;9.30;;;5.63;;
40827;SDS011;26549;50.918;5.338;2023-03-01T16:16:49;9.35;;;5.47;;
40827;SDS011;26549;50.918;5.338;2023-03-01T16:19:15;9.23;;;5.03;;
40827;SDS011;26549;50.918;5.338;2023-03-01T16:21:41;12.05;;;5.88;;
40827;SDS011;26549;50.918;5.338;2023-03-01T16:24:08;7.90;;;4.78;;
40827;SDS011;26549;50.918;5.338;2023-03-01T16:26:35;9.43;;;5.13;;
40827;SDS011;26549;50.918;5.338;2023-03-01T16:29:02;7.70;;;4.72;;
40827;SDS011;26549;50.918;5.338;2023-03-01T16:31:28;9.52;;;4.50;;
40827;SDS011;26549;50.918;5.338;2023-03-01T16:33:55;6.60;;;4.50;;
40827;SDS011;26549;50.918;5.338;2023-03-01T16:36:22;8.10;;;5.28;;
40827;SDS011;26549;50.918;5.338;2023-03-01T16:38:49;7.68;;;4.45;;
40827;SDS011;26549;50.918;5.338;2023-03-01T16:41:17;7.70;;;4.65;;
40827;SDS011;26549;50.918;5.338;2023-03-01T16:43:45;7.30;;;4.82;;
40827;SDS011;26549;50.918;5.338;2023-03-01T16:46:19;8.07;;;5.38;;
40827;SDS011;26549;50.918;5.338;2023-03-01T16:48:46;9.68;;;5.30;;
40827;SDS011;26549;50.918;5.338;2023-03-01T16:51:13;7.60;;;4.85;;
40827;SDS011;26549;50.918;5.338;2023-03-01T16:53:39;6.00;;;4.65;;
40827;SDS011;26549;50.918;5.338;2023-03-01T16:56:06;7.47;;;5.25;;
40827;SDS011;26549;50.918;5.338;2023-03-01T16:58:34;7.75;;;5.35;;
40827;SDS011;26549;50.918;5.338;2023-03-01T17:01:07;8.13;;;5.10;;
40827;SDS011;26549;50.918;5.338;2023-03-01T17:03:41;8.73;;;5.13;;
40827;SDS011;26549;50.918;5.338;2023-03-01T17:06:09;7.57;;;5.30;;
40827;SDS011;26549;50.918;5.338;2023-03-01T17:08:36;8.68;;;4.70;;
40827;SDS011;26549;50.918;5.338;2023-03-01T17:11:13;10.30;;;5.38;;
40827;SDS011;26549;50.918;5.338;2023-03-01T17:13:40;8.73;;;5.22;;
40827;SDS011;26549;50.918;5.338;2023-03-01T17:16:07;7.03;;;5.47;;
40827;SDS011;26549;50.918;5.338;2023-03-01T17:18:35;9.40;;;5.72;;
40827;SDS011;26549;50.918;5.338;2023-03-01T17:21:02;8.00;;;4.70;;
40827;SDS011;26549;50.918;5.338;2023-03-01T17:23:29;7.63;;;4.68;;
40827;SDS011;26549;50.918;5.338;2023-03-01T17:25:57;10.32;;;5.07;;
40827;SDS011;26549;50.918;5.338;2023-03-01T17:28:24;7.32;;;5.18;;
40827;SDS011;26549;50.918;5.338;2023-03-01T17:30:52;9.20;;;5.40;;
40827;SDS011;26549;50.918;5.338;2023-03-01T17:33:18;10.20;;;5.30;;
40827;SDS011;26549;50.918;5.338;2023-03-01T17:35:44;8.52;;;5.28;;
40827;SDS011;26549;50.918;5.338;2023-03-01T17:38:11;10.25;;;5.82;;